Time,TemperatureF,DewpointF,PressureIn,WindDirection,WindDirectionDegrees,WindSpeedMPH,WindSpeedGustMPH,Humidity,HourlyPrecipIn,Conditions,Clouds,dailyrainin,SoftwareType,DateUTC
2013-05-07 00:08:00,-999.0,-99.9,29.94,North,-999,-999.0,-999.0,-999,0.00,,,0.00,weatherlink.com 1.10,2013-05-07 05:08:00,
2013-05-07 00:23:00,-999.0,-99.9,29.94,North,-999,-999.0,-999.0,-999,0.00,,,0.00,weatherlink.com 1.10,2013-05-07 05:23:00,
2013-05-07 00:38:00,-999.0,-99.9,29.94,North,-999,-999.0,-999.0,-999,0.00,,,0.00,weatherlink.com 1.10,2013-05-07 05:38:00,
2013-05-07 00:53:00,-999.0,-99.9,29.93,North,-999,-999.0,-999.0,-999,0.00,,,0.00,weatherlink.com 1.10,2013-05-07 05:53:00,
2013-05-07 01:08:00,-999.0,-99.9,29.94,North,-999,-999.0,-999.0,-999,0.00,,,0.00,weatherlink.com 1.10,2013-05-07 06:08:00,
2013-05-07 01:23:00,-999.0,-99.9,29.93,North,-999,-999.0,-999.0,-999,0.00,,,0.00,weatherlink.com 1.10,2013-05-07 06:23:00,
2013-05-07 01:38:00,-999.0,-99.9,29.93,North,-999,-999.0,-999.0,-999,0.00,,,0.00,weatherlink.com 1.10,2013-05-07 06:38:00,
2013-05-07 01:53:00,-999.0,-99.9,29.93,North,-999,-999.0,-999.0,-999,0.00,,,0.00,weatherlink.com 1.10,2013-05-07 06:53:00,
2013-05-07 02:08:00,-999.0,-99.9,29.93,North,-999,-999.0,-999.0,-999,0.00,,,0.00,weatherlink.com 1.10,2013-05-07 07:08:00,
2013-05-07 02:23:00,-999.0,-99.9,29.93,North,-999,-999.0,-999.0,-999,0.00,,,0.00,weatherlink.com 1.10,2013-05-07 07:23:00,
2013-05-07 02:38:00,-999.0,-99.9,29.93,North,-999,-999.0,-999.0,-999,0.00,,,0.00,weatherlink.com 1.10,2013-05-07 07:38:00,
2013-05-07 02:53:00,-999.0,-99.9,29.93,North,-999,-999.0,-999.0,-999,0.00,,,0.00,weatherlink.com 1.10,2013-05-07 07:53:00,
2013-05-07 03:09:00,-999.0,-99.9,29.93,North,-999,-999.0,-999.0,-999,0.00,,,0.00,weatherlink.com 1.10,2013-05-07 08:09:00,
2013-05-07 03:24:00,-999.0,-99.9,29.93,North,-999,-999.0,-999.0,-999,0.00,,,0.00,weatherlink.com 1.10,2013-05-07 08:24:00,
2013-05-07 03:39:00,-999.0,-99.9,29.93,North,-999,-999.0,-999.0,-999,0.00,,,0.00,weatherlink.com 1.10,2013-05-07 08:39:00,
2013-05-07 03:54:00,-999.0,-99.9,29.93,North,-999,-999.0,-999.0,-999,0.00,,,0.00,weatherlink.com 1.10,2013-05-07 08:54:00,
2013-05-07 04:09:00,-999.0,-99.9,29.94,North,-999,-999.0,-999.0,-999,0.00,,,0.00,weatherlink.com 1.10,2013-05-07 09:09:00,
2013-05-07 04:24:00,-999.0,-99.9,29.94,North,-999,-999.0,-999.0,-999,0.00,,,0.00,weatherlink.com 1.10,2013-05-07 09:24:00,
2013-05-07 04:39:00,-999.0,-99.9,29.94,North,-999,-999.0,-999.0,-999,0.00,,,0.00,weatherlink.com 1.10,2013-05-07 09:39:00,
2013-05-07 04:54:00,-999.0,-99.9,29.94,North,-999,-999.0,-999.0,-999,0.00,,,0.00,weatherlink.com 1.10,2013-05-07 09:54:00,
2013-05-07 05:09:00,-999.0,-99.9,29.95,North,-999,-999.0,-999.0,-999,0.00,,,0.00,weatherlink.com 1.10,2013-05-07 10:09:00,
2013-05-07 05:24:00,-999.0,-99.9,29.95,North,-999,-999.0,-999.0,-999,0.00,,,0.00,weatherlink.com 1.10,2013-05-07 10:24:00,
2013-05-07 05:39:00,-999.0,-99.9,29.96,North,-999,-999.0,-999.0,-999,0.00,,,0.00,weatherlink.com 1.10,2013-05-07 10:39:00,
2013-05-07 05:54:00,-999.0,-99.9,29.96,North,-999,-999.0,-999.0,-999,0.00,,,0.00,weatherlink.com 1.10,2013-05-07 10:54:00,
2013-05-07 06:09:00,-999.0,-99.9,29.97,North,-999,-999.0,-999.0,-999,0.00,,,0.00,weatherlink.com 1.10,2013-05-07 11:09:00,
2013-05-07 06:24:00,-999.0,-99.9,29.97,North,-999,-999.0,-999.0,-999,0.00,,,0.00,weatherlink.com 1.10,2013-05-07 11:24:00,
2013-05-07 06:40:00,-999.0,-99.9,29.98,North,-999,-999.0,-999.0,-999,0.00,,,0.00,weatherlink.com 1.10,2013-05-07 11:40:00,
2013-05-07 06:55:00,-999.0,-99.9,29.98,North,-999,-999.0,-999.0,-999,0.00,,,0.00,weatherlink.com 1.10,2013-05-07 11:55:00,
2013-05-07 07:10:00,56.7,56.0,29.98,NW,326,0.0,0.0,96,0.00,,,0.00,weatherlink.com 1.10,2013-05-07 12:10:00,
2013-05-07 07:25:00,56.7,56.0,29.98,NW,326,0.0,0.0,96,0.00,,,0.00,weatherlink.com 1.10,2013-05-07 12:25:00,
2013-05-07 07:40:00,57.0,56.0,29.98,NW,326,0.0,1.0,96,0.00,,,0.00,weatherlink.com 1.10,2013-05-07 12:40:00,
2013-05-07 07:55:00,57.6,57.0,29.99,NW,326,0.0,0.0,96,0.00,,,0.00,weatherlink.com 1.10,2013-05-07 12:55:00,
2013-05-07 08:10:00,58.0,57.0,30.00,NW,326,0.0,1.0,96,0.00,,,0.00,weatherlink.com 1.10,2013-05-07 13:10:00,
2013-05-07 08:25:00,58.9,58.0,30.00,NW,326,0.0,1.0,95,0.00,,,0.00,weatherlink.com 1.10,2013-05-07 13:25:00,
2013-05-07 08:40:00,60.0,58.0,30.00,NNW,339,2.0,2.0,94,0.00,,,0.00,weatherlink.com 1.10,2013-05-07 13:40:00,
2013-05-07 08:55:00,61.7,59.0,30.00,NNW,344,1.0,4.0,92,0.00,,,0.00,weatherlink.com 1.10,2013-05-07 13:55:00,
2013-05-07 09:10:00,63.8,60.0,30.01,NNW,344,0.0,4.0,88,0.00,,,0.00,weatherlink.com 1.10,2013-05-07 14:10:00,
2013-05-07 09:25:00,64.2,60.0,30.01,NNW,344,0.0,3.0,86,0.00,,,0.00,weatherlink.com 1.10,2013-05-07 14:25:00,
2013-05-07 09:40:00,64.3,60.0,30.01,NNW,344,1.0,2.0,87,0.00,,,0.00,weatherlink.com 1.10,2013-05-07 14:40:00,
2013-05-07 09:55:00,64.3,60.0,30.00,NNW,344,0.0,3.0,85,0.00,,,0.00,weatherlink.com 1.10,2013-05-07 14:55:00,
2013-05-07 10:10:00,64.6,60.0,30.01,NNW,344,3.0,5.0,86,0.00,,,0.00,weatherlink.com 1.10,2013-05-07 15:10:00,
2013-05-07 10:25:00,66.2,62.0,30.00,NNW,345,0.0,4.0,86,0.00,,,0.00,weatherlink.com 1.10,2013-05-07 15:25:00,
2013-05-07 10:40:00,66.8,61.0,30.01,NNW,344,1.0,3.0,81,0.00,,,0.00,weatherlink.com 1.10,2013-05-07 15:40:00,
2013-05-07 10:55:00,67.7,61.0,30.00,NNW,345,0.0,4.0,80,0.00,,,0.00,weatherlink.com 1.10,2013-05-07 15:55:00,
2013-05-07 11:10:00,69.8,64.0,30.00,SE,134,0.0,4.0,81,0.00,,,0.00,weatherlink.com 1.10,2013-05-07 16:10:00,
2013-05-07 11:25:00,70.9,63.0,30.00,East,97,6.0,6.0,76,0.00,,,0.00,weatherlink.com 1.10,2013-05-07 16:25:00,
2013-05-07 11:40:00,70.8,63.0,30.00,NNW,338,0.0,4.0,76,0.00,,,0.00,weatherlink.com 1.10,2013-05-07 16:40:00,
2013-05-07 11:56:00,70.9,61.0,30.00,NNW,338,2.0,4.0,71,0.00,,,0.00,weatherlink.com 1.10,2013-05-07 16:56:00,
2013-05-07 12:11:00,71.2,62.0,30.00,NNW,342,5.0,6.0,72,0.00,,,0.00,weatherlink.com 1.10,2013-05-07 17:11:00,
2013-05-07 12:26:00,70.9,63.0,29.99,NNW,346,0.0,5.0,75,0.00,,,0.00,weatherlink.com 1.10,2013-05-07 17:26:00,
2013-05-07 12:41:00,71.0,62.0,29.99,NNW,342,4.0,5.0,72,0.00,,,0.00,weatherlink.com 1.10,2013-05-07 17:41:00,
2013-05-07 12:56:00,70.9,60.0,29.99,NNW,340,4.0,8.0,69,0.00,,,0.00,weatherlink.com 1.10,2013-05-07 17:56:00,
2013-05-07 13:11:00,72.3,62.0,29.99,NE,44,1.0,7.0,71,0.00,,,0.00,weatherlink.com 1.10,2013-05-07 18:11:00,
2013-05-07 13:26:00,73.3,62.0,29.98,NNE,30,3.0,9.0,68,0.00,,,0.00,weatherlink.com 1.10,2013-05-07 18:26:00,
2013-05-07 13:41:00,73.3,61.0,29.98,North,360,2.0,6.0,65,0.00,,,0.00,weatherlink.com 1.10,2013-05-07 18:41:00,
2013-05-07 13:56:00,73.9,62.0,29.98,NE,48,2.0,8.0,66,0.00,,,0.00,weatherlink.com 1.10,2013-05-07 18:56:00,
2013-05-07 14:11:00,74.8,60.0,29.97,NNE,24,2.0,7.0,60,0.00,,,0.00,weatherlink.com 1.10,2013-05-07 19:11:00,
2013-05-07 14:26:00,74.0,60.0,29.97,NNW,342,3.0,6.0,62,0.00,,,0.00,weatherlink.com 1.10,2013-05-07 19:26:00,
2013-05-07 14:41:00,72.9,60.0,29.97,NW,325,5.0,6.0,65,0.00,,,0.00,weatherlink.com 1.10,2013-05-07 19:41:00,
2013-05-07 14:56:00,71.7,61.0,29.97,NNW,329,2.0,7.0,68,0.00,,,0.00,weatherlink.com 1.10,2013-05-07 19:56:00,
2013-05-07 15:11:00,71.4,60.0,29.96,NNW,329,2.0,5.0,68,0.00,,,0.00,weatherlink.com 1.10,2013-05-07 20:11:00,
2013-05-07 15:26:00,71.4,60.0,29.96,NNW,329,3.0,4.0,67,0.00,,,0.00,weatherlink.com 1.10,2013-05-07 20:26:00,
2013-05-07 15:41:00,72.4,59.0,29.96,NNW,329,2.0,4.0,64,0.00,,,0.00,weatherlink.com 1.10,2013-05-07 20:41:00,
2013-05-07 15:56:00,72.9,60.0,29.95,NNW,329,2.0,2.0,65,0.00,,,0.00,weatherlink.com 1.10,2013-05-07 20:56:00,
2013-05-07 16:11:00,74.4,59.0,29.95,NNW,329,2.0,4.0,60,0.00,,,0.00,weatherlink.com 1.10,2013-05-07 21:11:00,
2013-05-07 16:26:00,75.7,60.0,29.95,NNW,329,0.0,4.0,58,0.00,,,0.00,weatherlink.com 1.10,2013-05-07 21:26:00,
2013-05-07 16:41:00,75.5,61.0,29.94,WNW,295,0.0,5.0,60,0.00,,,0.00,weatherlink.com 1.10,2013-05-07 21:41:00,
2013-05-07 16:56:00,75.2,61.0,29.94,West,279,4.0,8.0,61,0.00,,,0.00,weatherlink.com 1.10,2013-05-07 21:56:00,
2013-05-07 17:11:00,74.9,60.0,29.94,WNW,290,1.0,7.0,60,0.00,,,0.00,weatherlink.com 1.10,2013-05-07 22:11:00,
2013-05-07 17:26:00,74.2,61.0,29.94,West,275,1.0,5.0,63,0.00,,,0.00,weatherlink.com 1.10,2013-05-07 22:26:00,
2013-05-07 17:56:00,72.6,61.0,29.94,SW,221,1.0,5.0,67,0.00,,,0.00,weatherlink.com 1.10,2013-05-07 22:56:00,
2013-05-07 18:11:00,72.2,62.0,29.94,West,277,0.0,2.0,70,0.00,,,0.00,weatherlink.com 1.10,2013-05-07 23:11:00,
2013-05-07 18:26:00,71.5,62.0,29.94,NNW,343,7.0,7.0,71,0.00,,,0.00,weatherlink.com 1.10,2013-05-07 23:26:00,
2013-05-07 18:41:00,70.6,60.0,29.94,NW,325,4.0,7.0,69,0.00,,,0.00,weatherlink.com 1.10,2013-05-07 23:41:00,
2013-05-07 18:56:00,70.1,60.0,29.95,NW,318,4.0,7.0,70,0.00,,,0.00,weatherlink.com 1.10,2013-05-07 23:56:00,
2013-05-07 19:11:00,69.8,58.0,29.95,NNW,332,3.0,5.0,67,0.00,,,0.00,weatherlink.com 1.10,2013-05-08 00:11:00,
2013-05-07 19:26:00,69.1,59.0,29.95,NW,316,2.0,6.0,70,0.00,,,0.00,weatherlink.com 1.10,2013-05-08 00:26:00,
2013-05-07 19:41:00,67.8,58.0,29.95,West,269,0.0,4.0,71,0.00,,,0.00,weatherlink.com 1.10,2013-05-08 00:41:00,
2013-05-07 19:56:00,66.7,58.0,29.95,West,276,0.0,2.0,74,0.00,,,0.00,weatherlink.com 1.10,2013-05-08 00:56:00,
2013-05-07 20:11:00,65.6,58.0,29.95,West,276,0.0,2.0,77,0.00,,,0.00,weatherlink.com 1.10,2013-05-08 01:11:00,
2013-05-07 20:26:00,64.3,58.0,29.95,West,276,0.0,0.0,80,0.00,,,0.00,weatherlink.com 1.10,2013-05-08 01:26:00,
2013-05-07 20:41:00,63.5,58.0,29.96,West,276,0.0,0.0,82,0.00,,,0.00,weatherlink.com 1.10,2013-05-08 01:41:00,
2013-05-07 20:56:00,62.9,57.0,29.96,West,276,0.0,0.0,82,0.00,,,0.00,weatherlink.com 1.10,2013-05-08 01:56:00,
2013-05-07 21:11:00,62.2,58.0,29.96,West,276,0.0,0.0,86,0.00,,,0.00,weatherlink.com 1.10,2013-05-08 02:11:00,
2013-05-07 21:26:00,61.1,57.0,29.96,West,276,0.0,0.0,87,0.00,,,0.00,weatherlink.com 1.10,2013-05-08 02:26:00,
2013-05-07 21:41:00,60.9,57.0,29.97,West,276,0.0,0.0,88,0.00,,,0.00,weatherlink.com 1.10,2013-05-08 02:41:00,
2013-05-07 21:56:00,60.9,57.0,29.97,West,276,0.0,0.0,88,0.00,,,0.00,weatherlink.com 1.10,2013-05-08 02:56:00,
2013-05-07 22:11:00,60.2,57.0,29.97,West,276,0.0,0.0,88,0.00,,,0.00,weatherlink.com 1.10,2013-05-08 03:11:00,
2013-05-07 22:26:00,60.2,57.0,29.97,West,276,0.0,0.0,88,0.00,,,0.00,weatherlink.com 1.10,2013-05-08 03:26:00,
2013-05-07 22:41:00,59.7,57.0,29.97,West,276,0.0,0.0,90,0.00,,,0.00,weatherlink.com 1.10,2013-05-08 03:41:00,
2013-05-07 22:56:00,59.5,56.0,29.97,West,276,0.0,0.0,89,0.00,,,0.00,weatherlink.com 1.10,2013-05-08 03:56:00,
2013-05-07 23:11:00,58.7,56.0,29.97,West,276,1.0,1.0,91,0.00,,,0.00,weatherlink.com 1.10,2013-05-08 04:11:00,
2013-05-07 23:26:00,59.0,56.0,29.97,West,276,0.0,2.0,91,0.00,,,0.00,weatherlink.com 1.10,2013-05-08 04:26:00,
2013-05-07 23:41:00,58.2,55.0,29.96,West,276,0.0,1.0,90,0.00,,,0.00,weatherlink.com 1.10,2013-05-08 04:41:00,
2013-05-07 23:56:00,57.7,55.0,29.96,West,276,0.0,0.0,91,0.00,,,0.00,weatherlink.com 1.10,2013-05-08 04:56:00,